sensor_id;sensor_type;location;lat;lon;timestamp;pressure;altitude;pressure_sealevel;temperature;humidity
52032;BME280;38044;45.148;39.604;2023-07-13T00:02:24;101270.00;;;20.85;77.37
52032;BME280;38044;45.148;39.604;2023-07-13T00:04:52;101266.03;;;20.83;77.07
52032;BME280;38044;45.148;39.604;2023-07-13T00:07:18;101260.56;;;20.83;77.22
52032;BME280;38044;45.148;39.604;2023-07-13T00:09:47;101263.19;;;20.79;77.53
52032;BME280;38044;45.148;39.604;2023-07-13T00:12:33;101267.31;;;20.73;77.71
52032;BME280;38044;45.148;39.604;2023-07-13T00:15:01;101272.88;;;20.77;77.41
52032;BME280;38044;45.148;39.604;2023-07-13T00:17:28;101259.91;;;20.74;77.17
52032;BME280;38044;45.148;39.604;2023-07-13T00:19:55;101275.28;;;20.78;77.56
52032;BME280;38044;45.148;39.604;2023-07-13T00:22:23;101265.81;;;20.76;77.90
52032;BME280;38044;45.148;39.604;2023-07-13T00:24:52;101262.72;;;20.77;77.68
52032;BME280;38044;45.148;39.604;2023-07-13T00:27:18;101265.47;;;20.77;77.88
52032;BME280;38044;45.148;39.604;2023-07-13T00:29:44;101270.59;;;20.79;77.80
52032;BME280;38044;45.148;39.604;2023-07-13T00:32:11;101262.72;;;20.77;77.60
52032;BME280;38044;45.148;39.604;2023-07-13T00:34:37;101258.66;;;20.71;78.27
52032;BME280;38044;45.148;39.604;2023-07-13T00:37:05;101254.78;;;20.72;78.41
52032;BME280;38044;45.148;39.604;2023-07-13T00:39:35;101263.31;;;20.70;78.34
52032;BME280;38044;45.148;39.604;2023-07-13T00:42:02;101260.94;;;20.69;78.33
52032;BME280;38044;45.148;39.604;2023-07-13T00:44:28;101261.97;;;20.64;79.14
52032;BME280;38044;45.148;39.604;2023-07-13T00:46:54;101260.59;;;20.58;78.83
52032;BME280;38044;45.148;39.604;2023-07-13T00:49:23;101263.91;;;20.64;79.33
52032;BME280;38044;45.148;39.604;2023-07-13T00:51:51;101255.34;;;20.65;79.05
52032;BME280;38044;45.148;39.604;2023-07-13T00:54:26;101264.78;;;20.68;78.99
52032;BME280;38044;45.148;39.604;2023-07-13T00:56:56;101257.75;;;20.67;79.33
52032;BME280;38044;45.148;39.604;2023-07-13T00:59:24;101253.88;;;20.68;78.70
52032;BME280;38044;45.148;39.604;2023-07-13T01:01:50;101263.22;;;20.67;79.09
52032;BME280;38044;45.148;39.604;2023-07-13T01:04:17;101266.28;;;20.65;78.96
52032;BME280;38044;45.148;39.604;2023-07-13T01:06:43;101263.91;;;20.64;78.80
52032;BME280;38044;45.148;39.604;2023-07-13T01:09:11;101260.69;;;20.62;79.55
52032;BME280;38044;45.148;39.604;2023-07-13T01:11:37;101261.59;;;20.66;78.74
52032;BME280;38044;45.148;39.604;2023-07-13T01:14:03;101251.63;;;20.58;79.14
52032;BME280;38044;45.148;39.604;2023-07-13T01:16:32;101257.97;;;20.62;78.96
52032;BME280;38044;45.148;39.604;2023-07-13T01:18:59;101260.69;;;20.50;79.33
52032;BME280;38044;45.148;39.604;2023-07-13T01:21:28;101263.84;;;20.39;79.47
52032;BME280;38044;45.148;39.604;2023-07-13T01:23:54;101269.53;;;20.34;80.56
52032;BME280;38044;45.148;39.604;2023-07-13T01:26:21;101272.47;;;20.17;80.71
52032;BME280;38044;45.148;39.604;2023-07-13T01:28:47;101272.91;;;20.07;81.58
52032;BME280;38044;45.148;39.604;2023-07-13T01:31:12;101275.19;;;20.05;82.11
52032;BME280;38044;45.148;39.604;2023-07-13T01:33:39;101276.19;;;20.00;82.31
52032;BME280;38044;45.148;39.604;2023-07-13T01:36:07;101275.06;;;20.01;82.50
52032;BME280;38044;45.148;39.604;2023-07-13T01:38:34;101277.91;;;20.05;82.20
52032;BME280;38044;45.148;39.604;2023-07-13T01:41:00;101274.28;;;20.00;82.58
52032;BME280;38044;45.148;39.604;2023-07-13T01:43:26;101287.69;;;20.06;82.80
52032;BME280;38044;45.148;39.604;2023-07-13T01:45:52;101274.28;;;20.00;82.77
52032;BME280;38044;45.148;39.604;2023-07-13T01:48:18;101286.34;;;20.12;82.63
52032;BME280;38044;45.148;39.604;2023-07-13T01:50:45;101276.09;;;20.09;82.44
52032;BME280;38044;45.148;39.604;2023-07-13T01:53:11;101290.41;;;20.06;82.57
52032;BME280;38044;45.148;39.604;2023-07-13T01:55:37;101298.34;;;19.98;82.84
52032;BME280;38044;45.148;39.604;2023-07-13T01:58:04;101294.25;;;19.92;83.48
52032;BME280;38044;45.148;39.604;2023-07-13T02:00:30;101283.34;;;19.92;82.98
52032;BME280;38044;45.148;39.604;2023-07-13T02:02:56;101278.19;;;19.91;83.13
52032;BME280;38044;45.148;39.604;2023-07-13T02:05:25;101279.34;;;19.90;82.91
52032;BME280;38044;45.148;39.604;2023-07-13T02:07:51;101274.88;;;19.85;83.13
52032;BME280;38044;45.148;39.604;2023-07-13T02:10:18;101284.44;;;19.91;82.98
52032;BME280;38044;45.148;39.604;2023-07-13T02:12:44;101288.00;;;19.92;82.93
52032;BME280;38044;45.148;39.604;2023-07-13T02:15:10;101292.63;;;19.91;83.14
52032;BME280;38044;45.148;39.604;2023-07-13T02:17:36;101288.78;;;19.92;83.36
52032;BME280;38044;45.148;39.604;2023-07-13T02:20:04;101283.28;;;20.13;82.46
52032;BME280;38044;45.148;39.604;2023-07-13T02:22:30;101290.19;;;20.11;82.21
52032;BME280;38044;45.148;39.604;2023-07-13T02:24:56;101288.34;;;20.02;82.63
52032;BME280;38044;45.148;39.604;2023-07-13T02:27:22;101299.53;;;20.10;82.95
52032;BME280;38044;45.148;39.604;2023-07-13T02:29:47;101301.59;;;20.25;82.39
52032;BME280;38044;45.148;39.604;2023-07-13T02:32:17;101291.16;;;20.39;82.34
52032;BME280;38044;45.148;39.604;2023-07-13T02:34:43;101301.44;;;20.67;81.03
52032;BME280;38044;45.148;39.604;2023-07-13T02:37:09;101297.13;;;20.78;80.75
52032;BME280;38044;45.148;39.604;2023-07-13T02:39:35;101306.91;;;20.91;80.62
52032;BME280;38044;45.148;39.604;2023-07-13T02:42:01;101293.94;;;21.01;79.42
52032;BME280;38044;45.148;39.604;2023-07-13T02:44:27;101301.66;;;20.99;80.08
52032;BME280;38044;45.148;39.604;2023-07-13T02:46:53;101303.69;;;21.14;79.68
52032;BME280;38044;45.148;39.604;2023-07-13T02:49:19;101304.09;;;21.28;78.77
52032;BME280;38044;45.148;39.604;2023-07-13T02:51:45;101298.16;;;21.51;78.05
52032;BME280;38044;45.148;39.604;2023-07-13T02:54:11;101300.81;;;21.75;77.75
52032;BME280;38044;45.148;39.604;2023-07-13T02:56:39;101302.06;;;21.94;75.72
52032;BME280;38044;45.148;39.604;2023-07-13T02:59:05;101301.19;;;21.90;75.58
52032;BME280;38044;45.148;39.604;2023-07-13T03:01:31;101307.78;;;21.89;75.48
52032;BME280;38044;45.148;39.604;2023-07-13T03:04:01;101303.69;;;21.95;75.12
52032;BME280;38044;45.148;39.604;2023-07-13T03:06:27;101308.47;;;21.98;75.50
52032;BME280;38044;45.148;39.604;2023-07-13T03:08:56;101307.22;;;22.11;74.90
52032;BME280;38044;45.148;39.604;2023-07-13T03:11:22;101306.53;;;22.14;74.65
52032;BME280;38044;45.148;39.604;2023-07-13T03:13:48;101304.50;;;22.11;74.48
52032;BME280;38044;45.148;39.604;2023-07-13T03:16:15;101323.28;;;21.97;75.12
52032;BME280;38044;45.148;39.604;2023-07-13T03:18:41;101315.75;;;21.94;74.15
52032;BME280;38044;45.148;39.604;2023-07-13T03:21:08;101316.31;;;21.99;74.61
52032;BME280;38044;45.148;39.604;2023-07-13T03:23:34;101315.19;;;22.16;74.12
52032;BME280;38044;45.148;39.604;2023-07-13T03:26:13;101324.63;;;22.47;73.73
52032;BME280;38044;45.148;39.604;2023-07-13T03:28:40;101326.50;;;22.94;72.50
52032;BME280;38044;45.148;39.604;2023-07-13T03:31:08;101334.72;;;23.45;69.80
52032;BME280;38044;45.148;39.604;2023-07-13T03:33:35;101332.94;;;23.92;67.84
52032;BME280;38044;45.148;39.604;2023-07-13T03:36:02;101339.53;;;24.30;66.95
52032;BME280;38044;45.148;39.604;2023-07-13T03:38:28;101337.25;;;25.34;64.37
52032;BME280;38044;45.148;39.604;2023-07-13T03:40:54;101331.28;;;26.30;61.19
52032;BME280;38044;45.148;39.604;2023-07-13T03:43:20;101330.25;;;26.49;59.88
52032;BME280;38044;45.148;39.604;2023-07-13T03:45:47;101329.69;;;25.92;60.86
52032;BME280;38044;45.148;39.604;2023-07-13T03:48:13;101335.94;;;25.55;61.85
52032;BME280;38044;45.148;39.604;2023-07-13T03:50:40;101335.84;;;25.48;62.08
52032;BME280;38044;45.148;39.604;2023-07-13T03:53:06;101344.56;;;25.23;62.75
52032;BME280;38044;45.148;39.604;2023-07-13T03:55:32;101332.16;;;24.83;63.49
52032;BME280;38044;45.148;39.604;2023-07-13T04:00:45;101337.66;;;24.57;65.74
52032;BME280;38044;45.148;39.604;2023-07-13T04:03:11;101342.00;;;25.11;64.45
52032;BME280;38044;45.148;39.604;2023-07-13T04:05:38;101325.44;;;25.98;61.54
52032;BME280;38044;45.148;39.604;2023-07-13T04:08:06;101347.13;;;26.92;59.30
52032;BME280;38044;45.148;39.604;2023-07-13T04:10:32;101350.84;;;28.05;55.66
52032;BME280;38044;45.148;39.604;2023-07-13T04:12:58;101353.69;;;28.80;53.88
52032;BME280;38044;45.148;39.604;2023-07-13T04:15:24;101352.50;;;28.88;53.45
52032;BME280;38044;45.148;39.604;2023-07-13T04:17:51;101352.78;;;29.37;52.51
52032;BME280;38044;45.148;39.604;2023-07-13T04:20:17;101356.69;;;29.47;52.47
52032;BME280;38044;45.148;39.604;2023-07-13T04:22:44;101353.97;;;30.20;50.58
52032;BME280;38044;45.148;39.604;2023-07-13T04:25:14;101352.00;;;30.69;49.41
52032;BME280;38044;45.148;39.604;2023-07-13T04:27:40;101350.94;;;31.01;48.26
52032;BME280;38044;45.148;39.604;2023-07-13T04:30:06;101347.16;;;31.56;47.03
52032;BME280;38044;45.148;39.604;2023-07-13T04:32:32;101355.75;;;31.96;46.56
52032;BME280;38044;45.148;39.604;2023-07-13T04:34:58;101358.38;;;32.07;45.09
52032;BME280;38044;45.148;39.604;2023-07-13T04:37:24;101357.94;;;32.36;45.63
52032;BME280;38044;45.148;39.604;2023-07-13T04:39:50;101363.94;;;32.81;44.25
52032;BME280;38044;45.148;39.604;2023-07-13T04:42:16;101364.22;;;33.10;43.54
52032;BME280;38044;45.148;39.604;2023-07-13T04:44:47;101370.75;;;33.63;42.42
52032;BME280;38044;45.148;39.604;2023-07-13T04:47:12;101375.84;;;33.45;41.98
52032;BME280;38044;45.148;39.604;2023-07-13T04:49:38;101373.09;;;33.65;41.93
52032;BME280;38044;45.148;39.604;2023-07-13T04:52:04;101374.28;;;34.20;41.26
52032;BME280;38044;45.148;39.604;2023-07-13T04:54:30;101372.34;;;34.17;41.04
52032;BME280;38044;45.148;39.604;2023-07-13T04:56:56;101368.69;;;34.20;40.35
52032;BME280;38044;45.148;39.604;2023-07-13T04:59:22;101375.84;;;34.21;40.04
52032;BME280;38044;45.148;39.604;2023-07-13T05:01:47;101384.47;;;34.27;40.47
52032;BME280;38044;45.148;39.604;2023-07-13T05:04:13;101373.41;;;34.56;40.16
52032;BME280;38044;45.148;39.604;2023-07-13T05:06:41;101376.03;;;34.14;40.06
52032;BME280;38044;45.148;39.604;2023-07-13T05:09:06;101378.25;;;34.03;40.30
52032;BME280;38044;45.148;39.604;2023-07-13T05:11:32;101386.38;;;34.14;39.92
52032;BME280;38044;45.148;39.604;2023-07-13T05:13:58;101376.88;;;34.44;39.73
52032;BME280;38044;45.148;39.604;2023-07-13T05:16:24;101382.00;;;34.45;39.95
52032;BME280;38044;45.148;39.604;2023-07-13T05:18:49;101389.53;;;34.81;39.70
52032;BME280;38044;45.148;39.604;2023-07-13T05:21:15;101386.50;;;35.05;38.54
52032;BME280;38044;45.148;39.604;2023-07-13T05:23:40;101381.41;;;34.70;38.83
52032;BME280;38044;45.148;39.604;2023-07-13T05:26:09;101383.69;;;34.59;38.55
52032;BME280;38044;45.148;39.604;2023-07-13T05:28:35;101391.50;;;34.97;37.67
52032;BME280;38044;45.148;39.604;2023-07-13T05:31:01;101389.41;;;34.03;39.07
52032;BME280;38044;45.148;39.604;2023-07-13T05:33:26;101385.81;;;34.55;39.37
52032;BME280;38044;45.148;39.604;2023-07-13T05:35:52;101388.63;;;35.30;38.31
52032;BME280;38044;45.148;39.604;2023-07-13T05:38:18;101385.69;;;35.62;36.64
52032;BME280;38044;45.148;39.604;2023-07-13T05:40:44;101389.53;;;35.69;37.60
52032;BME280;38044;45.148;39.604;2023-07-13T05:43:10;101394.69;;;35.96;37.44
52032;BME280;38044;45.148;39.604;2023-07-13T05:45:36;101393.31;;;36.51;35.86
52032;BME280;38044;45.148;39.604;2023-07-13T05:48:01;101387.44;;;36.11;36.65
52032;BME280;38044;45.148;39.604;2023-07-13T05:50:27;101389.75;;;36.64;35.59
52032;BME280;38044;45.148;39.604;2023-07-13T05:52:52;101388.66;;;36.36;35.96
52032;BME280;38044;45.148;39.604;2023-07-13T05:55:19;101393.00;;;35.60;37.34
52032;BME280;38044;45.148;39.604;2023-07-13T05:57:44;101396.38;;;35.80;37.29
52032;BME280;38044;45.148;39.604;2023-07-13T06:00:10;101396.81;;;35.92;37.79
52032;BME280;38044;45.148;39.604;2023-07-13T06:02:36;101397.94;;;36.20;37.52
52032;BME280;38044;45.148;39.604;2023-07-13T06:05:01;101391.00;;;36.37;36.23
52032;BME280;38044;45.148;39.604;2023-07-13T06:07:27;101395.75;;;36.15;35.86
52032;BME280;38044;45.148;39.604;2023-07-13T06:09:52;101386.59;;;35.59;37.08
52032;BME280;38044;45.148;39.604;2023-07-13T06:12:18;101396.56;;;35.73;37.27
52032;BME280;38044;45.148;39.604;2023-07-13T06:14:44;101392.13;;;36.14;37.21
52032;BME280;38044;45.148;39.604;2023-07-13T06:17:09;101390.88;;;36.02;36.98
52032;BME280;38044;45.148;39.604;2023-07-13T06:19:35;101383.84;;;36.11;36.90
52032;BME280;38044;45.148;39.604;2023-07-13T06:22:00;101388.31;;;35.95;37.19
52032;BME280;38044;45.148;39.604;2023-07-13T06:24:26;101386.88;;;36.03;37.25
52032;BME280;38044;45.148;39.604;2023-07-13T06:26:52;101381.94;;;35.82;37.07
52032;BME280;38044;45.148;39.604;2023-07-13T06:29:17;101392.44;;;35.78;37.18
52032;BME280;38044;45.148;39.604;2023-07-13T06:31:43;101389.25;;;35.50;37.54
52032;BME280;38044;45.148;39.604;2023-07-13T06:34:08;101387.97;;;35.93;37.89
52032;BME280;38044;45.148;39.604;2023-07-13T06:36:34;101382.09;;;36.51;37.18
52032;BME280;38044;45.148;39.604;2023-07-13T06:39:01;101378.47;;;36.89;36.61
52032;BME280;38044;45.148;39.604;2023-07-13T06:41:27;101384.28;;;36.82;35.97
52032;BME280;38044;45.148;39.604;2023-07-13T06:43:53;101382.06;;;36.04;37.26
52032;BME280;38044;45.148;39.604;2023-07-13T06:46:22;101384.84;;;36.29;36.29
52032;BME280;38044;45.148;39.604;2023-07-13T06:48:48;101385.75;;;36.14;36.41
52032;BME280;38044;45.148;39.604;2023-07-13T06:51:14;101386.28;;;36.47;36.26
52032;BME280;38044;45.148;39.604;2023-07-13T06:53:40;101388.66;;;36.23;37.05
52032;BME280;38044;45.148;39.604;2023-07-13T06:56:05;101391.00;;;35.99;37.49
52032;BME280;38044;45.148;39.604;2023-07-13T06:58:31;101383.97;;;36.33;37.48
52032;BME280;38044;45.148;39.604;2023-07-13T07:00:56;101392.34;;;36.58;36.21
52032;BME280;38044;45.148;39.604;2023-07-13T07:03:22;101391.09;;;35.82;37.50
52032;BME280;38044;45.148;39.604;2023-07-13T07:05:48;101385.50;;;36.46;36.69
52032;BME280;38044;45.148;39.604;2023-07-13T07:08:13;101392.22;;;36.62;36.42
52032;BME280;38044;45.148;39.604;2023-07-13T07:10:40;101383.16;;;37.14;35.23
52032;BME280;38044;45.148;39.604;2023-07-13T07:13:05;101381.47;;;36.95;35.89
52032;BME280;38044;45.148;39.604;2023-07-13T07:15:31;101391.72;;;37.11;35.79
52032;BME280;38044;45.148;39.604;2023-07-13T07:17:56;101388.75;;;37.49;35.35
52032;BME280;38044;45.148;39.604;2023-07-13T07:20:22;101387.03;;;36.73;35.83
52032;BME280;38044;45.148;39.604;2023-07-13T07:22:48;101395.75;;;36.75;36.85
52032;BME280;38044;45.148;39.604;2023-07-13T07:25:13;101385.47;;;36.94;35.95
52032;BME280;38044;45.148;39.604;2023-07-13T07:27:39;101383.16;;;36.92;35.91
52032;BME280;38044;45.148;39.604;2023-07-13T07:30:05;101381.38;;;36.86;35.88
52032;BME280;38044;45.148;39.604;2023-07-13T07:32:31;101387.31;;;36.40;36.13
52032;BME280;38044;45.148;39.604;2023-07-13T07:34:57;101388.44;;;36.30;36.62
52032;BME280;38044;45.148;39.604;2023-07-13T07:37:22;101382.59;;;36.37;36.32
52032;BME280;38044;45.148;39.604;2023-07-13T07:39:48;101375.19;;;37.04;35.05
52032;BME280;38044;45.148;39.604;2023-07-13T07:42:14;101384.63;;;36.24;37.10
52032;BME280;38044;45.148;39.604;2023-07-13T07:44:40;101372.88;;;36.29;36.61
52032;BME280;38044;45.148;39.604;2023-07-13T07:47:06;101374.53;;;36.39;36.43
52032;BME280;38044;45.148;39.604;2023-07-13T07:49:31;101381.69;;;36.66;36.26
52032;BME280;38044;45.148;39.604;2023-07-13T07:51:57;101379.13;;;36.33;36.92
52032;BME280;38044;45.148;39.604;2023-07-13T07:54:22;101373.56;;;35.95;37.18
52032;BME280;38044;45.148;39.604;2023-07-13T07:56:48;101376.94;;;36.15;36.29
52032;BME280;38044;45.148;39.604;2023-07-13T07:59:14;101379.38;;;35.75;37.10
52032;BME280;38044;45.148;39.604;2023-07-13T08:01:39;101371.75;;;35.75;36.63
52032;BME280;38044;45.148;39.604;2023-07-13T08:04:05;101371.41;;;35.60;38.72
52032;BME280;38044;45.148;39.604;2023-07-13T08:06:35;101382.03;;;35.36;38.04
52032;BME280;38044;45.148;39.604;2023-07-13T08:09:00;101374.09;;;35.77;37.24
52032;BME280;38044;45.148;39.604;2023-07-13T08:11:27;101373.88;;;36.22;36.87
52032;BME280;38044;45.148;39.604;2023-07-13T08:13:53;101378.56;;;36.38;36.68
52032;BME280;38044;45.148;39.604;2023-07-13T08:16:18;101371.00;;;36.26;36.36
52032;BME280;38044;45.148;39.604;2023-07-13T08:18:44;101373.63;;;36.42;35.42
52032;BME280;38044;45.148;39.604;2023-07-13T08:21:09;101376.41;;;35.65;37.33
52032;BME280;38044;45.148;39.604;2023-07-13T08:23:35;101376.22;;;35.73;37.56
52032;BME280;38044;45.148;39.604;2023-07-13T08:26:01;101381.59;;;35.67;37.53
52032;BME280;38044;45.148;39.604;2023-07-13T08:28:27;101370.63;;;35.60;37.15
52032;BME280;38044;45.148;39.604;2023-07-13T08:30:53;101382.34;;;35.68;37.60
52032;BME280;38044;45.148;39.604;2023-07-13T08:33:19;101380.56;;;35.74;38.80
52032;BME280;38044;45.148;39.604;2023-07-13T08:35:48;101384.41;;;36.05;37.82
52032;BME280;38044;45.148;39.604;2023-07-13T08:38:14;101386.53;;;36.14;37.67
52032;BME280;38044;45.148;39.604;2023-07-13T08:40:40;101387.91;;;36.09;36.69
52032;BME280;38044;45.148;39.604;2023-07-13T08:43:07;101386.81;;;35.65;39.06
52032;BME280;38044;45.148;39.604;2023-07-13T08:45:40;101377.06;;;36.12;37.80
52032;BME280;38044;45.148;39.604;2023-07-13T08:48:13;101383.94;;;35.94;37.94
52032;BME280;38044;45.148;39.604;2023-07-13T08:50:57;101377.72;;;36.16;37.12
52032;BME280;38044;45.148;39.604;2023-07-13T08:53:23;101383.94;;;35.69;37.59
52032;BME280;38044;45.148;39.604;2023-07-13T08:55:51;101381.47;;;35.29;38.33
52032;BME280;38044;45.148;39.604;2023-07-13T08:58:22;101384.22;;;34.70;38.83
52032;BME280;38044;45.148;39.604;2023-07-13T09:00:52;101377.75;;;35.03;39.42
52032;BME280;38044;45.148;39.604;2023-07-13T09:03:23;101372.69;;;35.43;38.26
52032;BME280;38044;45.148;39.604;2023-07-13T09:05:54;101370.22;;;35.45;38.43
52032;BME280;38044;45.148;39.604;2023-07-13T09:08:38;101375.44;;;35.72;37.43
52032;BME280;38044;45.148;39.604;2023-07-13T09:13:54;101366.94;;;35.76;37.55
52032;BME280;38044;45.148;39.604;2023-07-13T09:16:23;101368.97;;;35.33;38.12
52032;BME280;38044;45.148;39.604;2023-07-13T09:18:50;101356.25;;;35.45;37.41
52032;BME280;38044;45.148;39.604;2023-07-13T09:21:22;101357.25;;;35.51;38.32
52032;BME280;38044;45.148;39.604;2023-07-13T09:23:50;101361.16;;;35.54;39.38
52032;BME280;38044;45.148;39.604;2023-07-13T09:26:22;101350.16;;;35.76;37.64
52032;BME280;38044;45.148;39.604;2023-07-13T09:29:31;101346.00;;;35.93;38.06
52032;BME280;38044;45.148;39.604;2023-07-13T09:31:37;101334.47;;;35.91;36.64
52032;BME280;38044;45.148;39.604;2023-07-13T09:34:04;101348.81;;;35.68;37.77
52032;BME280;38044;45.148;39.604;2023-07-13T09:36:34;101338.56;;;35.48;37.05
52032;BME280;38044;45.148;39.604;2023-07-13T09:39:04;101337.97;;;35.28;36.61
52032;BME280;38044;45.148;39.604;2023-07-13T09:44:12;101336.44;;;35.27;38.78
52032;BME280;38044;45.148;39.604;2023-07-13T09:46:38;101334.38;;;35.14;38.05
52032;BME280;38044;45.148;39.604;2023-07-13T09:49:05;101329.59;;;34.98;37.95
52032;BME280;38044;45.148;39.604;2023-07-13T09:51:32;101328.47;;;34.96;39.26
52032;BME280;38044;45.148;39.604;2023-07-13T09:53:58;101331.63;;;34.69;37.67
52032;BME280;38044;45.148;39.604;2023-07-13T09:56:25;101336.63;;;34.28;38.52
52032;BME280;38044;45.148;39.604;2023-07-13T09:58:51;101327.63;;;33.68;39.16
52032;BME280;38044;45.148;39.604;2023-07-13T10:01:30;101330.91;;;32.83;41.85
52032;BME280;38044;45.148;39.604;2023-07-13T10:03:56;101325.56;;;32.49;42.49
52032;BME280;38044;45.148;39.604;2023-07-13T10:06:23;101317.03;;;32.33;42.37
52032;BME280;38044;45.148;39.604;2023-07-13T10:08:49;101316.47;;;31.94;42.55
52032;BME280;38044;45.148;39.604;2023-07-13T10:13:44;101316.81;;;31.96;42.31
52032;BME280;38044;45.148;39.604;2023-07-13T10:16:10;101316.09;;;31.61;43.22
52032;BME280;38044;45.148;39.604;2023-07-13T10:18:44;101325.72;;;31.57;44.03
52032;BME280;38044;45.148;39.604;2023-07-13T10:21:20;101309.03;;;31.57;43.78
52032;BME280;38044;45.148;39.604;2023-07-13T10:24:17;101312.78;;;31.74;44.27
52032;BME280;38044;45.148;39.604;2023-07-13T10:26:52;101297.97;;;31.53;43.61
52032;BME280;38044;45.148;39.604;2023-07-13T10:29:22;101305.97;;;31.13;43.44
52032;BME280;38044;45.148;39.604;2023-07-13T10:31:49;101314.59;;;30.85;43.50
52032;BME280;38044;45.148;39.604;2023-07-13T10:34:15;101311.09;;;30.81;43.63
52032;BME280;38044;45.148;39.604;2023-07-13T10:36:46;101298.53;;;30.65;44.11
52032;BME280;38044;45.148;39.604;2023-07-13T10:39:20;101299.19;;;31.18;44.03
52032;BME280;38044;45.148;39.604;2023-07-13T10:41:53;101317.56;;;31.05;43.19
52032;BME280;38044;45.148;39.604;2023-07-13T10:44:26;101313.84;;;31.18;43.98
52032;BME280;38044;45.148;39.604;2023-07-13T10:47:07;101313.13;;;31.49;43.12
52032;BME280;38044;45.148;39.604;2023-07-13T10:49:35;101304.53;;;31.36;41.68
52032;BME280;38044;45.148;39.604;2023-07-13T10:52:02;101319.28;;;30.95;42.86
52032;BME280;38044;45.148;39.604;2023-07-13T10:54:34;101305.00;;;30.51;43.99
52032;BME280;38044;45.148;39.604;2023-07-13T10:57:26;101311.59;;;30.23;44.04
52032;BME280;38044;45.148;39.604;2023-07-13T11:00:15;101301.94;;;30.84;44.49
52032;BME280;38044;45.148;39.604;2023-07-13T11:02:42;101298.72;;;31.57;42.54
52032;BME280;38044;45.148;39.604;2023-07-13T11:05:30;101299.75;;;31.40;42.10
52032;BME280;38044;45.148;39.604;2023-07-13T11:10:49;101313.06;;;31.52;42.40
52032;BME280;38044;45.148;39.604;2023-07-13T11:13:39;101314.22;;;31.55;40.96
52032;BME280;38044;45.148;39.604;2023-07-13T11:19:39;101302.78;;;30.81;42.08
52032;BME280;38044;45.148;39.604;2023-07-13T11:25:00;101298.56;;;30.13;43.19
52032;BME280;38044;45.148;39.604;2023-07-13T11:27:42;101302.53;;;30.12;42.75
52032;BME280;38044;45.148;39.604;2023-07-13T11:38:35;101286.28;;;31.01;41.75
52032;BME280;38044;45.148;39.604;2023-07-13T11:41:10;101294.03;;;30.79;41.71
52032;BME280;38044;45.148;39.604;2023-07-13T11:43:40;101289.50;;;30.58;42.64
52032;BME280;38044;45.148;39.604;2023-07-13T11:46:20;101294.41;;;30.43;42.49
52032;BME280;38044;45.148;39.604;2023-07-13T11:48:48;101288.41;;;30.48;41.87
52032;BME280;38044;45.148;39.604;2023-07-13T11:51:25;101295.56;;;30.42;42.83
52032;BME280;38044;45.148;39.604;2023-07-13T11:53:54;101287.69;;;30.82;43.28
52032;BME280;38044;45.148;39.604;2023-07-13T11:56:21;101281.34;;;31.15;44.08
52032;BME280;38044;45.148;39.604;2023-07-13T11:58:50;101293.22;;;30.85;41.17
52032;BME280;38044;45.148;39.604;2023-07-13T12:01:23;101288.03;;;30.46;43.33
52032;BME280;38044;45.148;39.604;2023-07-13T12:03:50;101279.91;;;30.66;42.28
52032;BME280;38044;45.148;39.604;2023-07-13T12:06:35;101280.41;;;30.95;40.03
52032;BME280;38044;45.148;39.604;2023-07-13T12:09:11;101277.63;;;30.57;41.79
52032;BME280;38044;45.148;39.604;2023-07-13T12:11:45;101266.72;;;30.77;41.28
52032;BME280;38044;45.148;39.604;2023-07-13T12:14:18;101279.41;;;30.74;42.06
52032;BME280;38044;45.148;39.604;2023-07-13T12:16:47;101264.03;;;30.66;40.20
52032;BME280;38044;45.148;39.604;2023-07-13T12:19:25;101275.56;;;31.03;41.28
52032;BME280;38044;45.148;39.604;2023-07-13T12:21:59;101271.09;;;31.12;40.71
52032;BME280;38044;45.148;39.604;2023-07-13T12:24:26;101277.75;;;31.18;40.58
52032;BME280;38044;45.148;39.604;2023-07-13T12:26:54;101266.53;;;30.57;41.24
52032;BME280;38044;45.148;39.604;2023-07-13T12:29:23;101266.72;;;30.36;43.25
52032;BME280;38044;45.148;39.604;2023-07-13T12:31:50;101278.91;;;29.93;42.87
52032;BME280;38044;45.148;39.604;2023-07-13T12:34:23;101272.34;;;29.69;43.11
52032;BME280;38044;45.148;39.604;2023-07-13T12:36:55;101270.34;;;29.70;43.23
52032;BME280;38044;45.148;39.604;2023-07-13T12:39:32;101278.25;;;29.75;44.04
52032;BME280;38044;45.148;39.604;2023-07-13T12:44:53;101290.16;;;29.68;44.10
52032;BME280;38044;45.148;39.604;2023-07-13T12:47:20;101286.19;;;29.69;43.66
52032;BME280;38044;45.148;39.604;2023-07-13T12:49:55;101284.41;;;29.30;45.38
52032;BME280;38044;45.148;39.604;2023-07-13T12:52:23;101274.94;;;29.17;45.75
52032;BME280;38044;45.148;39.604;2023-07-13T12:55:07;101264.22;;;29.26;44.80
52032;BME280;38044;45.148;39.604;2023-07-13T12:57:51;101272.41;;;29.51;45.60
52032;BME280;38044;45.148;39.604;2023-07-13T13:00:36;101270.41;;;29.59;44.96
52032;BME280;38044;45.148;39.604;2023-07-13T13:03:26;101278.72;;;29.59;45.38
52032;BME280;38044;45.148;39.604;2023-07-13T13:06:05;101284.66;;;29.50;44.23
52032;BME280;38044;45.148;39.604;2023-07-13T13:08:35;101278.06;;;29.26;45.60
52032;BME280;38044;45.148;39.604;2023-07-13T13:11:02;101271.72;;;29.36;45.59
52032;BME280;38044;45.148;39.604;2023-07-13T13:13:28;101274.09;;;29.34;45.50
52032;BME280;38044;45.148;39.604;2023-07-13T13:15:55;101276.09;;;29.23;45.51
52032;BME280;38044;45.148;39.604;2023-07-13T13:18:23;101267.78;;;29.27;44.32